Time;durP1;ratioP1;P1;durP2;ratioP2;P2;SDS_P1;SDS_P2;PMS_P1;PMS_P2;Temp;Humidity;BMP_temperature;BMP_pressure;BME280_temperature;BME280_humidity;BME280_pressure;Samples;Min_cycle;Max_cycle;Signal;HPM_P1;HPM_P2
2021/11/25 00:02:16;;;;;;;1999.90;999.90;;;-3.70;99.90;;;;;;5115417;28;20055;-84
2021/11/25 00:04:41;;;;;;;1999.90;999.90;;;-3.70;99.90;;;;;;5115448;28;20031;-83
2021/11/25 00:07:08;;;;;;;1999.90;999.90;;;-3.80;99.90;;;;;;5115392;28;20051;-83
2021/11/25 00:09:34;;;;;;;1999.90;999.90;;;-3.80;99.90;;;;;;5115574;28;20028;-83
2021/11/25 00:12:00;;;;;;;1999.90;999.90;;;-3.80;99.90;;;;;;5116359;28;20030;-84
2021/11/25 00:14:26;;;;;;;1999.90;999.90;;;-3.80;99.90;;;;;;5117015;28;20352;-84
2021/11/25 00:16:51;;;;;;;1999.90;999.90;;;-3.70;99.90;;;;;;5115034;28;20093;-84
2021/11/25 00:19:17;;;;;;;1999.90;999.90;;;-3.80;99.90;;;;;;5115292;28;20089;-84
2021/11/25 00:21:43;;;;;;;1999.90;999.90;;;-3.80;99.90;;;;;;5115652;28;20035;-84
2021/11/25 00:24:09;;;;;;;1999.90;999.90;;;-3.70;99.90;;;;;;5115540;28;20035;-85
2021/11/25 00:26:35;;;;;;;1999.90;999.90;;;-3.70;99.90;;;;;;5115250;28;20467;-83
2021/11/25 00:29:03;;;;;;;1999.90;999.90;;;-3.90;99.90;;;;;;5115270;28;20069;-83
2021/11/25 00:31:29;;;;;;;1999.90;999.90;;;-3.90;99.90;;;;;;5115487;28;20030;-84
2021/11/25 00:33:54;;;;;;;1999.90;999.90;;;-3.90;99.90;;;;;;5115294;28;20031;-84
2021/11/25 00:36:20;;;;;;;1999.90;999.90;;;-3.90;99.90;;;;;;5115166;28;20058;-85
2021/11/25 00:38:46;;;;;;;1999.90;999.90;;;-3.90;99.90;;;;;;5116035;28;20105;-84
2021/11/25 00:41:13;;;;;;;1999.90;999.90;;;-3.90;99.90;;;;;;5115220;28;20102;-83
2021/11/25 00:43:39;;;;;;;1999.90;999.90;;;-3.80;99.90;;;;;;5115520;28;20023;-83
2021/11/25 00:46:05;;;;;;;1999.90;999.90;;;-3.80;99.90;;;;;;5115013;28;20054;-84
2021/11/25 00:48:30;;;;;;;1999.90;999.90;;;-3.90;99.90;;;;;;5115471;28;20030;-82
2021/11/25 00:50:56;;;;;;;1999.90;999.90;;;-3.90;99.90;;;;;;5115496;28;20517;-82
2021/11/25 00:53:22;;;;;;;1999.90;999.90;;;-3.80;99.90;;;;;;5118011;28;20062;-83
2021/11/25 00:55:47;;;;;;;1999.90;999.90;;;-3.80;99.90;;;;;;5119211;28;20046;-82
2021/11/25 00:58:14;;;;;;;1999.90;999.90;;;-3.80;99.90;;;;;;5119137;28;20038;-84
2021/11/25 01:00:41;;;;;;;1999.90;999.90;;;-3.80;99.90;;;;;;5119267;28;20035;-84
2021/11/25 01:03:07;;;;;;;1999.90;999.90;;;-3.80;99.90;;;;;;5119305;28;20069;-84
2021/11/25 01:05:33;;;;;;;1999.90;999.90;;;-3.80;99.90;;;;;;5119035;28;20024;-83
2021/11/25 01:07:59;;;;;;;1999.90;999.90;;;-3.90;99.90;;;;;;5120089;28;20467;-83
2021/11/25 01:10:25;;;;;;;1999.90;999.90;;;-3.90;99.90;;;;;;5118833;28;20027;-83
2021/11/25 01:12:53;;;;;;;1999.90;999.90;;;-4.00;99.90;;;;;;5119041;28;20058;-83
2021/11/25 01:15:28;;;;;;;1999.90;999.90;;;-3.90;99.90;;;;;;5118780;28;20114;-84
2021/11/25 01:17:54;;;;;;;1999.90;999.90;;;-3.90;99.90;;;;;;5118865;28;20402;-83
2021/11/25 01:20:20;;;;;;;1999.90;999.90;;;-3.90;99.90;;;;;;5118604;28;20031;-83
2021/11/25 01:22:46;;;;;;;1999.90;999.90;;;-3.80;99.90;;;;;;5118682;28;20019;-84
2021/11/25 01:25:12;;;;;;;1999.90;999.90;;;-3.80;99.90;;;;;;5118655;28;20028;-85
2021/11/25 01:27:39;;;;;;;1999.90;999.90;;;-3.80;99.90;;;;;;5118634;28;20031;-83
2021/11/25 01:30:07;;;;;;;1999.90;999.90;;;-3.80;99.90;;;;;;5118530;28;20505;-84
2021/11/25 01:32:33;;;;;;;1999.90;999.90;;;-3.70;99.90;;;;;;5118271;28;20035;-84
2021/11/25 01:34:59;;;;;;;1999.90;999.90;;;-3.70;99.90;;;;;;5117921;28;20024;-84
2021/11/25 01:37:27;;;;;;;1999.90;999.90;;;-3.70;99.90;;;;;;5118082;28;20035;-84
2021/11/25 01:39:53;;;;;;;1999.90;999.90;;;-3.60;99.90;;;;;;5118044;28;20027;-84
2021/11/25 01:42:19;;;;;;;1999.90;999.90;;;-3.60;99.90;;;;;;5118379;28;20386;-85
2021/11/25 01:44:45;;;;;;;1999.90;999.90;;;-3.60;99.90;;;;;;5117812;28;20055;-84
2021/11/25 01:47:10;;;;;;;1999.90;999.90;;;-3.60;99.90;;;;;;5118063;28;20052;-84
2021/11/25 01:49:36;;;;;;;1999.90;999.90;;;-3.50;99.90;;;;;;5118100;28;20024;-83
2021/11/25 01:52:02;;;;;;;1999.90;999.90;;;-3.60;99.90;;;;;;5118258;28;20062;-83
2021/11/25 01:54:28;;;;;;;1999.90;999.90;;;-3.50;99.90;;;;;;5117933;28;20019;-83
2021/11/25 01:56:55;;;;;;;1999.90;999.90;;;-3.50;99.90;;;;;;5119165;28;20057;-83
2021/11/25 01:59:21;;;;;;;1999.90;999.90;;;-3.40;99.90;;;;;;5118020;28;20467;-83
2021/11/25 02:01:46;;;;;;;1999.90;999.90;;;-3.50;99.90;;;;;;5117867;28;20047;-83
2021/11/25 02:04:12;;;;;;;1999.90;999.90;;;-3.40;99.90;;;;;;5117134;28;20482;-83
2021/11/25 02:06:39;;;;;;;1999.90;999.90;;;-3.40;99.90;;;;;;5117642;28;20383;-84
2021/11/25 02:09:05;;;;;;;1999.90;999.90;;;-3.40;99.90;;;;;;5117747;28;20020;-84
2021/11/25 02:11:31;;;;;;;1999.90;999.90;;;-3.40;99.90;;;;;;5117542;28;20585;-84
2021/11/25 02:13:57;;;;;;;1999.90;999.90;;;-3.40;99.90;;;;;;5117456;28;20128;-84
2021/11/25 02:16:23;;;;;;;1999.90;999.90;;;-3.40;99.90;;;;;;5117231;28;20031;-84
2021/11/25 02:18:49;;;;;;;1999.90;999.90;;;-3.40;99.90;;;;;;5117500;28;20485;-84
2021/11/25 02:21:15;;;;;;;1999.90;999.90;;;-3.40;99.90;;;;;;5117626;28;20030;-85
2021/11/25 02:23:41;;;;;;;1999.90;999.90;;;-3.30;99.90;;;;;;5117442;28;20019;-84
2021/11/25 02:26:07;;;;;;;1999.90;999.90;;;-3.40;99.90;;;;;;5117203;28;20038;-86
2021/11/25 02:28:35;;;;;;;1999.90;999.90;;;-3.40;99.90;;;;;;5117193;28;20080;-84
2021/11/25 02:31:03;;;;;;;1999.90;999.90;;;-3.40;99.90;;;;;;5117118;28;20031;-83
2021/11/25 02:33:29;;;;;;;1999.90;999.90;;;-3.40;99.90;;;;;;5117684;28;20034;-84
2021/11/25 02:35:55;;;;;;;1999.90;999.90;;;-3.40;99.90;;;;;;5116775;28;20027;-85
2021/11/25 02:38:22;;;;;;;1999.90;999.90;;;-3.40;99.90;;;;;;5116866;28;20028;-83
2021/11/25 02:40:50;;;;;;;1999.90;999.90;;;-3.40;99.90;;;;;;5116989;28;20114;-83
2021/11/25 02:43:19;;;;;;;1999.90;999.90;;;-3.30;99.90;;;;;;5117228;28;20028;-83
2021/11/25 02:45:55;;;;;;;1999.90;999.90;;;-3.20;99.90;;;;;;5117127;28;20019;-84
2021/11/25 02:48:23;;;;;;;1999.90;999.90;;;-3.20;99.90;;;;;;5118195;28;20028;-84
2021/11/25 02:50:52;;;;;;;1999.90;999.90;;;-3.20;99.90;;;;;;5116608;28;20023;-84
2021/11/25 02:53:20;;;;;;;1999.90;999.90;;;-3.10;99.90;;;;;;5116986;28;20053;-85
2021/11/25 02:55:46;;;;;;;1999.90;999.90;;;-3.10;99.90;;;;;;5117854;28;20019;-84
2021/11/25 02:58:11;;;;;;;1999.90;999.90;;;-3.10;99.90;;;;;;5116470;28;20030;-83
2021/11/25 03:00:41;;;;;;;1999.90;999.90;;;-3.00;99.90;;;;;;5117021;28;20059;-84
2021/11/25 03:03:10;;;;;;;1999.90;999.90;;;-3.00;99.90;;;;;;5116947;28;20044;-85
2021/11/25 03:05:39;;;;;;;1999.90;999.90;;;-3.00;99.90;;;;;;5116583;28;20051;-84
2021/11/25 03:08:07;;;;;;;1999.90;999.90;;;-2.90;99.90;;;;;;5116317;28;20019;-84
2021/11/25 03:10:52;;;;;;;1999.90;999.90;;;-2.80;99.90;;;;;;5116722;28;20019;-85
2021/11/25 03:13:20;;;;;;;1999.90;999.90;;;-2.80;99.90;;;;;;5116486;28;20493;-86
2021/11/25 03:15:47;;;;;;;1999.90;999.90;;;-2.80;99.90;;;;;;5115405;28;20020;-84
2021/11/25 03:18:13;;;;;;;1999.90;999.90;;;-2.70;99.90;;;;;;5116323;28;20031;-84
2021/11/25 03:20:43;;;;;;;1999.90;999.90;;;-2.60;99.90;;;;;;5116137;28;20034;-84
2021/11/25 03:23:10;;;;;;;1999.90;999.90;;;-2.60;99.90;;;;;;5116005;28;20068;-84
2021/11/25 03:25:38;;;;;;;1999.90;999.90;;;-2.60;99.90;;;;;;5115913;28;20024;-84
2021/11/25 03:28:04;;;;;;;1999.90;999.90;;;-2.50;99.90;;;;;;5116394;28;20046;-83
2021/11/25 03:30:32;;;;;;;1999.90;999.90;;;-2.50;99.90;;;;;;5116159;28;20028;-84
2021/11/25 03:32:57;;;;;;;1999.90;999.90;;;-2.50;99.90;;;;;;5115625;28;20032;-84
2021/11/25 03:35:23;;;;;;;1999.90;999.90;;;-2.50;99.90;;;;;;5115609;28;20573;-83
2021/11/25 03:37:49;;;;;;;1999.90;999.90;;;-2.40;99.90;;;;;;5115944;28;20054;-84
2021/11/25 03:40:16;;;;;;;1999.90;999.90;;;-2.40;99.90;;;;;;5116020;28;20023;-84
2021/11/25 03:42:41;;;;;;;1999.90;999.90;;;-2.40;99.90;;;;;;5115776;28;20031;-83
2021/11/25 03:45:09;;;;;;;1999.90;999.90;;;-2.40;99.90;;;;;;5117001;28;20020;-84
2021/11/25 03:47:34;;;;;;;1999.90;999.90;;;-2.40;99.90;;;;;;5116043;28;20024;-83
2021/11/25 03:50:00;;;;;;;1999.90;999.90;;;-2.40;99.90;;;;;;5116328;28;20089;-83
2021/11/25 03:52:26;;;;;;;1999.90;999.90;;;-2.40;99.90;;;;;;5115898;28;20477;-84
2021/11/25 03:54:54;;;;;;;1999.90;999.90;;;-2.40;99.90;;;;;;5115556;28;20024;-83
2021/11/25 03:57:22;;;;;;;1999.90;999.90;;;-2.40;99.90;;;;;;5115608;28;20031;-83
2021/11/25 03:59:48;;;;;;;1999.90;999.90;;;-2.30;99.90;;;;;;5116314;28;20069;-84
2021/11/25 04:02:14;;;;;;;1999.90;999.90;;;-2.30;99.90;;;;;;5115439;28;20048;-84
2021/11/25 04:04:40;;;;;;;1999.90;999.90;;;-2.20;99.90;;;;;;5115655;28;20030;-84
2021/11/25 04:07:05;;;;;;;1999.90;999.90;;;-2.30;99.90;;;;;;5115391;28;20085;-85
2021/11/25 04:09:31;;;;;;;1999.90;999.90;;;-2.30;99.90;;;;;;5115593;28;20031;-84
2021/11/25 04:11:57;;;;;;;1999.90;999.90;;;-2.40;99.90;;;;;;5115425;28;20067;-83
2021/11/25 04:14:22;;;;;;;1999.90;999.90;;;-2.30;99.90;;;;;;5115829;28;20024;-84
2021/11/25 04:16:48;;;;;;;1999.90;999.90;;;-2.30;99.90;;;;;;5115435;28;20043;-84
2021/11/25 04:19:14;;;;;;;1999.90;999.90;;;-2.30;99.90;;;;;;5115678;28;20020;-86
2021/11/25 04:21:39;;;;;;;1999.90;999.90;;;-2.30;99.90;;;;;;5115322;28;20050;-83
2021/11/25 04:24:05;;;;;;;1999.90;999.90;;;-2.30;99.90;;;;;;5115409;28;20027;-85
2021/11/25 04:26:31;;;;;;;1999.90;999.90;;;-2.30;99.90;;;;;;5115250;28;20032;-85
2021/11/25 04:28:57;;;;;;;1999.90;999.90;;;-2.20;99.90;;;;;;5119342;28;20027;-84
2021/11/25 04:36:51;;;;;;;1999.90;999.90;;;-2.20;99.90;;;;;;5121860;28;20053;-84
2021/11/25 04:39:17;;;;;;;1999.90;999.90;;;-2.10;99.90;;;;;;5122054;28;20026;-84
2021/11/25 04:41:43;;;;;;;1999.90;999.90;;;-2.10;99.90;;;;;;5126273;28;20114;-84
2021/11/25 04:44:09;;;;;;;1999.90;999.90;;;-2.20;99.90;;;;;;5127412;28;20035;-84
2021/11/25 04:46:35;;;;;;;1999.90;999.90;;;-2.10;99.90;;;;;;5126462;28;20051;-85
2021/11/25 04:49:03;;;;;;;1999.90;999.90;;;-2.10;99.90;;;;;;5119573;28;20011;-85
2021/11/25 04:51:29;;;;;;;1999.90;999.90;;;-2.10;99.90;;;;;;5118548;28;20030;-85
2021/11/25 04:53:56;;;;;;;1999.90;999.90;;;-2.00;99.90;;;;;;5118571;28;20032;-84
2021/11/25 04:56:22;;;;;;;1999.90;999.90;;;-2.00;99.90;;;;;;5118750;28;20042;-83
2021/11/25 04:58:48;;;;;;;1999.90;999.90;;;-1.90;99.90;;;;;;5119032;28;20114;-85
2021/11/25 05:01:14;;;;;;;1999.90;999.90;;;-1.90;99.90;;;;;;5118822;28;20024;-84
2021/11/25 05:03:40;;;;;;;1999.90;999.90;;;-1.90;99.90;;;;;;5118906;28;20030;-85
2021/11/25 05:06:06;;;;;;;1999.90;999.90;;;-1.90;99.90;;;;;;5118632;28;20020;-84
2021/11/25 05:08:32;;;;;;;1999.90;999.90;;;-1.90;99.90;;;;;;5118877;28;20030;-84
2021/11/25 05:10:57;;;;;;;1999.90;999.90;;;-1.80;99.90;;;;;;5118753;28;20019;-83
2021/11/25 05:13:23;;;;;;;1999.90;999.90;;;-1.90;99.90;;;;;;5118363;28;20517;-85
2021/11/25 05:15:49;;;;;;;1999.90;999.90;;;-2.00;99.90;;;;;;5118318;28;20072;-83
2021/11/25 05:18:14;;;;;;;1999.90;999.90;;;-1.90;99.90;;;;;;5118245;28;20028;-86
2021/11/25 05:20:40;;;;;;;1999.90;999.90;;;-2.00;99.90;;;;;;5118422;28;20020;-83
2021/11/25 05:23:06;;;;;;;1999.90;999.90;;;-2.00;99.90;;;;;;5118752;28;20053;-83
2021/11/25 05:25:32;;;;;;;1999.90;999.90;;;-2.10;99.90;;;;;;5118532;28;20023;-84
2021/11/25 05:27:58;;;;;;;1999.90;999.90;;;-2.10;99.90;;;;;;5118499;28;20055;-84
2021/11/25 05:30:30;;;;;;;1999.90;999.90;;;-2.20;99.90;;;;;;5118655;28;20453;-84
2021/11/25 05:32:56;;;;;;;1999.90;999.90;;;-2.20;99.90;;;;;;5118412;28;20072;-84
2021/11/25 05:35:21;;;;;;;1999.90;999.90;;;-2.30;99.90;;;;;;5117924;28;20027;-85
2021/11/25 05:37:47;;;;;;;1999.90;999.90;;;-2.40;99.90;;;;;;5118302;28;20035;-83
2021/11/25 05:40:14;;;;;;;1999.90;999.90;;;-2.40;99.90;;;;;;5116985;28;20051;-84
2021/11/25 05:42:41;;;;;;;1999.90;999.90;;;-2.50;99.90;;;;;;5117946;28;20028;-83
2021/11/25 05:45:08;;;;;;;1999.90;999.90;;;-2.50;99.90;;;;;;5118483;28;20027;-83
2021/11/25 05:47:36;;;;;;;1999.90;999.90;;;-2.60;99.90;;;;;;5117891;28;20087;-84
2021/11/25 05:50:11;;;;;;;1999.90;999.90;;;-2.60;99.90;;;;;;5117732;28;20432;-83
2021/11/25 05:52:37;;;;;;;1999.90;999.90;;;-2.70;99.90;;;;;;5117736;28;20564;-84
2021/11/25 05:55:04;;;;;;;1999.90;999.90;;;-2.70;99.90;;;;;;5117794;28;20126;-85
2021/11/25 05:57:30;;;;;;;1999.90;999.90;;;-2.70;99.90;;;;;;5117800;28;20043;-84
2021/11/25 05:59:55;;;;;;;1999.90;999.90;;;-2.70;99.90;;;;;;5117855;28;20024;-85
2021/11/25 06:02:21;;;;;;;1999.90;999.90;;;-2.70;99.90;;;;;;5117645;28;20137;-84
2021/11/25 06:04:48;;;;;;;1999.90;999.90;;;-2.70;99.90;;;;;;5118081;28;20028;-83
2021/11/25 06:07:14;;;;;;;1999.90;999.90;;;-2.70;99.90;;;;;;5120347;28;20050;-85
2021/11/25 06:09:40;;;;;;;1999.90;999.90;;;-2.80;99.90;;;;;;5117029;28;20467;-75
2021/11/25 06:12:06;;;;;;;1999.90;999.90;;;-2.80;99.90;;;;;;5116704;28;20032;-84
2021/11/25 06:14:33;;;;;;;1999.90;999.90;;;-1.70;99.90;;;;;;5116797;28;20058;-83
2021/11/25 06:17:01;;;;;;;1999.90;999.90;;;-1.80;99.90;;;;;;5120581;28;20127;-83
2021/11/25 06:19:27;;;;;;;1999.90;999.90;;;-2.20;99.90;;;;;;5117738;28;20031;-83
2021/11/25 06:21:52;;;;;;;1999.90;999.90;;;-2.40;99.90;;;;;;5117834;28;20114;-84
2021/11/25 06:24:18;;;;;;;1999.90;999.90;;;-2.50;99.90;;;;;;5117764;28;20078;-85
2021/11/25 06:26:44;;;;;;;1999.90;999.90;;;-2.70;99.90;;;;;;5117203;28;20031;-84
2021/11/25 06:29:11;;;;;;;1999.90;999.90;;;-2.80;99.90;;;;;;5117474;28;20058;-85
2021/11/25 06:31:37;;;;;;;1999.90;999.90;;;-2.80;99.90;;;;;;5117700;28;20031;-85
2021/11/25 06:34:03;;;;;;;1999.90;999.90;;;-2.80;99.90;;;;;;5118080;28;20019;-84
2021/11/25 06:36:29;;;;;;;1999.90;999.90;;;-2.80;99.90;;;;;;5117046;28;20041;-84
2021/11/25 06:38:54;;;;;;;1999.90;999.90;;;-2.80;99.90;;;;;;5117492;28;20111;-84
2021/11/25 06:41:20;;;;;;;1999.90;999.90;;;-2.90;99.90;;;;;;5117250;28;20082;-83
2021/11/25 06:43:46;;;;;;;1999.90;999.90;;;-2.90;99.90;;;;;;5117674;28;20023;-85
2021/11/25 06:46:11;;;;;;;1999.90;999.90;;;-2.90;99.90;;;;;;5117104;28;20081;-83
2021/11/25 06:48:37;;;;;;;1999.90;999.90;;;-2.90;99.90;;;;;;5117471;28;20056;-84
2021/11/25 06:51:03;;;;;;;1999.90;999.90;;;-2.90;99.90;;;;;;5117016;28;20038;-84
2021/11/25 06:53:29;;;;;;;1999.90;999.90;;;-2.90;99.90;;;;;;5117214;28;20020;-85
2021/11/25 06:55:55;;;;;;;1999.90;999.90;;;-2.90;99.90;;;;;;5117201;28;20027;-85
2021/11/25 06:58:21;;;;;;;1999.90;999.90;;;-2.90;99.90;;;;;;5118782;28;20048;-83
2021/11/25 07:00:47;;;;;;;1999.90;999.90;;;-2.90;99.90;;;;;;5116813;28;20024;-84
2021/11/25 07:03:13;;;;;;;1999.90;999.90;;;-2.90;99.90;;;;;;5116893;28;20142;-84
2021/11/25 07:05:38;;;;;;;1999.90;999.90;;;-2.80;99.90;;;;;;5116601;28;20054;-83
2021/11/25 07:08:04;;;;;;;1999.90;999.90;;;-2.80;99.90;;;;;;5116108;28;20074;-83
2021/11/25 07:10:32;;;;;;;1999.90;999.90;;;-2.70;99.90;;;;;;5116729;28;20028;-84
2021/11/25 07:12:57;;;;;;;1999.90;999.90;;;-2.60;99.90;;;;;;5116731;28;20039;-84
2021/11/25 07:15:26;;;;;;;1999.90;999.90;;;-2.50;99.90;;;;;;5117198;28;20056;-84
2021/11/25 07:17:53;;;;;;;1999.90;999.90;;;-2.40;99.90;;;;;;5116541;28;20042;-83
2021/11/25 07:20:19;;;;;;;1999.90;999.90;;;-2.30;99.90;;;;;;5116480;28;20104;-85
2021/11/25 07:22:46;;;;;;;1999.90;999.90;;;-2.10;99.90;;;;;;5116120;28;20388;-83
2021/11/25 07:25:14;;;;;;;1999.90;999.90;;;-2.10;99.90;;;;;;5116146;28;20020;-86
2021/11/25 07:27:41;;;;;;;1999.90;999.90;;;-2.10;99.90;;;;;;5116288;28;20023;-84
2021/11/25 07:30:08;;;;;;;1999.90;999.90;;;-2.00;99.90;;;;;;5116157;28;20015;-83
2021/11/25 07:32:36;;;;;;;1999.90;999.90;;;-2.00;99.90;;;;;;5116125;28;20028;-83
2021/11/25 07:35:03;;;;;;;1999.90;999.90;;;-1.80;99.90;;;;;;5115755;28;20088;-83
2021/11/25 07:37:28;;;;;;;1999.90;999.90;;;-1.80;99.90;;;;;;5115966;28;20054;-84
2021/11/25 07:39:54;;;;;;;1999.90;999.90;;;-1.80;99.90;;;;;;5116106;28;20023;-84
2021/11/25 07:42:20;;;;;;;1999.90;999.90;;;-1.80;99.90;;;;;;5115670;28;20027;-84
2021/11/25 07:44:46;;;;;;;1999.90;999.90;;;-1.70;99.90;;;;;;5116421;28;20039;-83
2021/11/25 07:47:11;;;;;;;1999.90;999.90;;;-1.60;99.90;;;;;;5114868;28;20023;-83
2021/11/25 07:49:38;;;;;;;1999.90;999.90;;;-1.60;99.90;;;;;;5115424;28;20106;-86
2021/11/25 07:52:07;;;;;;;1999.90;999.90;;;-1.50;99.90;;;;;;5114864;28;20131;-84
2021/11/25 07:54:33;;;;;;;1999.90;999.90;;;-1.40;99.90;;;;;;5114964;28;20478;-84
2021/11/25 07:57:00;;;;;;;1999.90;999.90;;;-1.40;99.90;;;;;;5115010;28;20064;-84
2021/11/25 07:59:29;;;;;;;1999.90;999.90;;;-1.40;99.90;;;;;;5115128;28;20467;-84
2021/11/25 08:01:56;;;;;;;1999.90;999.90;;;-1.40;99.90;;;;;;5114216;28;20048;-85
2021/11/25 08:04:23;;;;;;;1999.90;999.90;;;-1.30;99.90;;;;;;5114893;28;20096;-85
2021/11/25 08:06:48;;;;;;;1999.90;999.90;;;-1.30;99.90;;;;;;5115315;28;20027;-83
2021/11/25 08:09:16;;;;;;;1999.90;999.90;;;-1.20;99.90;;;;;;5114932;28;20423;-84
2021/11/25 08:11:42;;;;;;;1999.90;999.90;;;-1.00;99.90;;;;;;5114736;28;20475;-83
2021/11/25 08:14:07;;;;;;;1999.90;999.90;;;-1.00;99.90;;;;;;5115052;28;20053;-83
2021/11/25 08:16:33;;;;;;;1999.90;999.90;;;-1.00;99.90;;;;;;5114435;28;20039;-84
2021/11/25 08:18:58;;;;;;;1999.90;999.90;;;-0.90;99.90;;;;;;5114906;28;20020;-83
2021/11/25 08:21:24;;;;;;;1999.90;999.90;;;-0.90;99.90;;;;;;5114427;28;20036;-86
2021/11/25 08:23:50;;;;;;;1999.90;999.90;;;-0.80;99.90;;;;;;5114413;28;20108;-83
2021/11/25 08:26:16;;;;;;;1999.90;999.90;;;-0.80;99.90;;;;;;5114802;28;20432;-84
2021/11/25 08:28:41;;;;;;;1999.90;999.90;;;-0.70;99.90;;;;;;5115230;28;20042;-85
2021/11/25 08:31:08;;;;;;;1999.90;999.90;;;-0.50;99.90;;;;;;5115352;28;20114;-84
2021/11/25 08:33:35;;;;;;;1999.90;999.90;;;-0.60;99.90;;;;;;5115050;28;20483;-85
2021/11/25 08:36:01;;;;;;;1999.90;999.90;;;-0.50;99.90;;;;;;5116535;28;20023;-85
2021/11/25 08:38:31;;;;;;;1999.90;999.90;;;-0.50;99.90;;;;;;5121923;28;20043;-85
2021/11/25 08:40:57;;;;;;;1999.90;999.90;;;-0.50;99.90;;;;;;5130303;28;20045;-86
2021/11/25 08:43:23;;;;;;;1999.90;999.90;;;-0.50;99.90;;;;;;5126648;28;20028;-84
2021/11/25 08:45:50;;;;;;;1999.90;999.90;;;-0.60;99.90;;;;;;5115598;28;20028;-85
2021/11/25 08:48:16;;;;;;;1999.90;999.90;;;-0.50;99.90;;;;;;5116625;28;20024;-85
2021/11/25 08:50:44;;;;;;;1999.90;999.90;;;-0.70;99.90;;;;;;5117064;28;20114;-85
2021/11/25 08:53:14;;;;;;;1999.90;999.90;;;-0.60;99.90;;;;;;5116359;28;20043;-85
2021/11/25 08:55:40;;;;;;;1999.90;999.90;;;-0.20;99.90;;;;;;5115014;28;20020;-83
2021/11/25 08:58:06;;;;;;;1999.90;999.90;;;-0.40;99.90;;;;;;5115013;28;20043;-84
2021/11/25 09:00:34;;;;;;;1999.90;999.90;;;-0.20;99.90;;;;;;5115187;28;20424;-86
2021/11/25 09:03:03;;;;;;;1999.90;999.90;;;-0.10;99.90;;;;;;5115369;28;20074;-85
2021/11/25 09:05:30;;;;;;;1999.90;999.90;;;-0.10;99.90;;;;;;5115086;28;20019;-85
2021/11/25 09:07:56;;;;;;;1999.90;999.90;;;-0.20;99.90;;;;;;5114996;28;20028;-84
2021/11/25 09:10:22;;;;;;;1999.90;999.90;;;-0.10;99.90;;;;;;5114483;28;20019;-82
2021/11/25 09:12:48;;;;;;;1999.90;999.90;;;-0.10;99.90;;;;;;5114361;28;20023;-83
2021/11/25 09:15:15;;;;;;;1999.90;999.90;;;-0.10;99.90;;;;;;5116637;28;20012;-84
2021/11/25 09:17:41;;;;;;;1999.90;999.90;;;0.00;99.90;;;;;;5118383;28;20032;-85
2021/11/25 09:20:07;;;;;;;1999.90;999.90;;;-0.10;99.90;;;;;;5118826;28;20379;-82
2021/11/25 09:22:33;;;;;;;1999.90;999.90;;;-0.10;99.90;;;;;;5118151;28;20039;-83
2021/11/25 09:24:59;;;;;;;1999.90;999.90;;;0.00;99.90;;;;;;5118644;28;20417;-85
2021/11/25 09:27:25;;;;;;;1999.90;999.90;;;-0.10;99.90;;;;;;5118222;28;20463;-84
2021/11/25 09:29:50;;;;;;;1999.90;999.90;;;-0.10;99.90;;;;;;5117953;28;20031;-83
2021/11/25 09:32:16;;;;;;;1999.90;999.90;;;-0.20;99.90;;;;;;5117849;28;20023;-84
2021/11/25 09:34:42;;;;;;;1999.90;999.90;;;-0.20;99.90;;;;;;5117458;28;20035;-84
2021/11/25 09:37:09;;;;;;;1999.90;999.90;;;-0.10;99.90;;;;;;5117345;28;20039;-84
2021/11/25 09:39:34;;;;;;;1999.90;999.90;;;-0.10;99.90;;;;;;5117093;28;20459;-83
2021/11/25 09:42:00;;;;;;;1999.90;999.90;;;-0.10;99.90;;;;;;5117640;28;20072;-83
2021/11/25 09:44:26;;;;;;;1999.90;999.90;;;-0.10;99.90;;;;;;5117992;28;20032;-84
2021/11/25 09:46:55;;;;;;;1999.90;999.90;;;0.00;99.90;;;;;;5117213;28;20027;-83
2021/11/25 09:49:24;;;;;;;1999.90;999.90;;;0.00;99.90;;;;;;5119269;28;20085;-84
2021/11/25 09:51:53;;;;;;;1999.90;999.90;;;0.00;99.90;;;;;;5117700;28;20025;-84
2021/11/25 09:54:20;;;;;;;1999.90;999.90;;;0.00;99.90;;;;;;5117315;28;20084;-83
2021/11/25 09:56:48;;;;;;;1999.90;999.90;;;0.10;99.90;;;;;;5116978;28;20102;-84
2021/11/25 09:59:14;;;;;;;1999.90;999.90;;;0.10;99.90;;;;;;5117993;28;20027;-85
2021/11/25 10:01:39;;;;;;;1999.90;999.90;;;0.20;99.90;;;;;;5116619;28;20040;-85
2021/11/25 10:04:05;;;;;;;1999.90;999.90;;;0.10;99.90;;;;;;5115917;28;20131;-83
2021/11/25 10:06:36;;;;;;;1999.90;999.90;;;0.20;99.90;;;;;;5114962;27;20062;-74
2021/11/25 10:09:03;;;;;;;1999.90;999.90;;;0.40;99.90;;;;;;5115123;28;20115;-79
2021/11/25 10:11:39;;;;;;;1999.90;999.90;;;0.60;99.90;;;;;;5115756;28;20028;-83
2021/11/25 10:14:12;;;;;;;1999.90;999.90;;;0.40;99.90;;;;;;5115535;28;20034;-85
2021/11/25 10:16:46;;;;;;;1999.90;999.90;;;0.30;99.90;;;;;;5115505;28;20039;-81
2021/11/25 10:19:19;;;;;;;1999.90;999.90;;;0.30;99.90;;;;;;5115628;28;20047;-84
2021/11/25 10:21:53;;;;;;;1999.90;999.90;;;0.40;99.90;;;;;;5115952;28;20019;-80
2021/11/25 10:24:44;;;;;;;1999.90;999.90;;;0.50;99.90;;;;;;5115793;28;20019;-81
2021/11/25 10:27:25;;;;;;;1999.90;999.90;;;0.60;99.90;;;;;;5115702;28;20493;-84
2021/11/25 10:30:17;;;;;;;1999.90;999.90;;;0.70;99.90;;;;;;5116855;28;20022;-81
2021/11/25 10:32:59;;;;;;;1999.90;999.90;;;0.80;99.90;;;;;;5114989;28;20040;-81
2021/11/25 10:35:30;;;;;;;1999.90;999.90;;;0.90;99.90;;;;;;5115134;28;20073;-79
2021/11/25 10:40:30;;;;;;;1999.90;999.90;;;0.80;99.90;;;;;;5116088;28;20533;-80
2021/11/25 10:42:56;;;;;;;1999.90;999.90;;;0.60;99.90;;;;;;5115977;28;20024;-80
2021/11/25 10:45:22;;;;;;;1999.90;999.90;;;0.70;99.90;;;;;;5116091;28;20027;-80
2021/11/25 10:48:02;;;;;;;1999.90;999.90;;;0.70;99.90;;;;;;5114554;28;20023;-80
2021/11/25 10:50:29;;;;;;;1999.90;999.90;;;0.80;99.90;;;;;;5115595;28;20035;-84
2021/11/25 10:53:06;;;;;;;1999.90;999.90;;;1.00;99.90;;;;;;5115716;28;20070;-85
2021/11/25 10:55:32;;;;;;;1999.90;999.90;;;0.90;99.90;;;;;;5115653;28;20066;-85
2021/11/25 10:58:02;;;;;;;1999.90;999.90;;;1.10;99.90;;;;;;5115644;28;20574;-84
2021/11/25 11:00:36;;;;;;;1999.90;999.90;;;1.10;99.90;;;;;;5116473;28;20118;-83
2021/11/25 11:03:08;;;;;;;1999.90;999.90;;;1.30;99.90;;;;;;5115330;28;20497;-82
2021/11/25 11:05:57;;;;;;;1999.90;999.90;;;1.40;99.90;;;;;;5115237;28;20052;-83
2021/11/25 11:08:39;;;;;;;1999.90;999.90;;;1.30;99.90;;;;;;5115168;28;20059;-81
2021/11/25 11:11:06;;;;;;;1999.90;999.90;;;1.40;99.90;;;;;;5115066;28;20020;-82
2021/11/25 11:13:43;;;;;;;1999.90;999.90;;;1.40;99.90;;;;;;5114981;28;20034;-82
2021/11/25 11:19:00;;;;;;;1999.90;999.90;;;1.70;99.90;;;;;;5116925;28;20031;-82
2021/11/25 11:21:42;;;;;;;1999.90;999.90;;;1.70;99.90;;;;;;5115344;28;20029;-84
2021/11/25 11:24:16;;;;;;;1999.90;999.90;;;1.60;99.90;;;;;;5116013;28;20051;-83
2021/11/25 11:26:49;;;;;;;1999.90;999.90;;;1.60;99.90;;;;;;5115659;28;20398;-83
2021/11/25 11:29:26;;;;;;;1999.90;999.90;;;1.60;99.90;;;;;;5115898;28;20024;-85
2021/11/25 11:31:54;;;;;;;1999.90;999.90;;;1.80;99.90;;;;;;5116329;28;20532;-85
2021/11/25 11:34:20;;;;;;;1999.90;999.90;;;1.80;99.90;;;;;;5115795;28;20024;-85
2021/11/25 11:36:49;;;;;;;1999.90;999.90;;;1.90;99.90;;;;;;5116492;28;20036;-85
2021/11/25 11:39:17;;;;;;;1999.90;999.90;;;2.10;99.90;;;;;;5117207;28;20015;-85
2021/11/25 11:41:47;;;;;;;1999.90;999.90;;;2.60;99.90;;;;;;5116684;28;20030;-87
2021/11/25 11:44:13;;;;;;;1999.90;999.90;;;2.90;99.90;;;;;;5116437;28;20020;-85
2021/11/25 11:46:41;;;;;;;1999.90;999.90;;;;;;;;;;5116597;28;20154;-86
2021/11/25 11:49:07;;;;;;;1999.90;999.90;;;;;;;;;;5115735;28;20027;-85
2021/11/25 11:51:34;;;;;;;1999.90;999.90;;;;;;;;;;5116247;28;20043;-86
2021/11/25 11:54:01;;;;;;;1999.90;999.90;;;;;;;;;;5115904;28;20096;-84
2021/11/25 11:56:35;;;;;;;1999.90;999.90;;;;;;;;;;5116225;28;20023;-85
2021/11/25 11:59:01;;;;;;;1999.90;999.90;;;;;;;;;;5116451;28;20027;-83
2021/11/25 12:01:28;;;;;;;1999.90;999.90;;;;;;;;;;5116194;28;20027;-84
2021/11/25 12:03:56;;;;;;;1999.90;999.90;;;;;;;;;;5115875;28;20036;-85
2021/11/25 12:06:31;;;;;;;1999.90;999.90;;;;;;;;;;5115743;28;20402;-85
2021/11/25 12:08:57;;;;;;;1999.90;999.90;;;;;;;;;;5115493;28;20114;-83
2021/11/25 12:11:23;;;;;;;1999.90;999.90;;;;;;;;;;5116994;28;20023;-85
2021/11/25 12:13:49;;;;;;;1999.90;999.90;;;;;;;;;;5116487;28;20360;-85
2021/11/25 12:16:18;;;;;;;1999.90;999.90;;;;;;;;;;5115655;28;20080;-85
2021/11/25 12:18:53;;;;;;;1999.90;999.90;;;;;;;;;;5115933;28;20062;-85